sensor_id;sensor_type;location;lat;lon;timestamp;P1;durP1;ratioP1;P2;durP2;ratioP2
23722;SDS011;12042;52.136;5.584;2023-03-20T00:00:24;22.85;;;13.10;;
23722;SDS011;12042;52.136;5.584;2023-03-20T00:02:57;22.52;;;12.93;;
23722;SDS011;12042;52.136;5.584;2023-03-20T00:05:23;21.20;;;11.98;;
23722;SDS011;12042;52.136;5.584;2023-03-20T00:07:52;20.20;;;12.40;;
23722;SDS011;12042;52.136;5.584;2023-03-20T00:10:18;22.05;;;11.65;;
23722;SDS011;12042;52.136;5.584;2023-03-20T00:12:45;20.75;;;12.00;;
23722;SDS011;12042;52.136;5.584;2023-03-20T00:18:11;19.33;;;11.90;;
23722;SDS011;12042;52.136;5.584;2023-03-20T00:20:47;21.52;;;11.40;;
23722;SDS011;12042;52.136;5.584;2023-03-20T00:23:14;18.65;;;12.00;;
23722;SDS011;12042;52.136;5.584;2023-03-20T00:25:40;22.05;;;11.23;;
23722;SDS011;12042;52.136;5.584;2023-03-20T00:31:14;15.55;;;10.98;;
23722;SDS011;12042;52.136;5.584;2023-03-20T00:33:49;22.80;;;12.63;;
23722;SDS011;12042;52.136;5.584;2023-03-20T00:36:15;23.23;;;13.05;;
23722;SDS011;12042;52.136;5.584;2023-03-20T00:38:41;28.58;;;14.45;;
23722;SDS011;12042;52.136;5.584;2023-03-20T00:47:17;27.50;;;14.15;;
23722;SDS011;12042;52.136;5.584;2023-03-20T00:49:45;22.75;;;13.35;;
23722;SDS011;12042;52.136;5.584;2023-03-20T00:52:12;25.85;;;15.13;;
23722;SDS011;12042;52.136;5.584;2023-03-20T00:54:39;23.10;;;14.57;;
23722;SDS011;12042;52.136;5.584;2023-03-20T00:57:05;25.63;;;14.95;;
23722;SDS011;12042;52.136;5.584;2023-03-20T00:59:46;27.23;;;16.45;;
23722;SDS011;12042;52.136;5.584;2023-03-20T01:02:20;30.52;;;16.65;;
23722;SDS011;12042;52.136;5.584;2023-03-20T01:04:50;27.40;;;17.55;;
23722;SDS011;12042;52.136;5.584;2023-03-20T01:07:16;31.65;;;19.17;;
23722;SDS011;12042;52.136;5.584;2023-03-20T01:09:42;34.78;;;18.88;;
23722;SDS011;12042;52.136;5.584;2023-03-20T01:12:11;33.65;;;18.80;;
23722;SDS011;12042;52.136;5.584;2023-03-20T01:14:38;32.03;;;18.80;;
23722;SDS011;12042;52.136;5.584;2023-03-20T01:17:03;31.63;;;18.30;;
23722;SDS011;12042;52.136;5.584;2023-03-20T01:19:29;30.85;;;18.88;;
23722;SDS011;12042;52.136;5.584;2023-03-20T01:21:55;31.17;;;17.90;;
23722;SDS011;12042;52.136;5.584;2023-03-20T01:24:20;31.05;;;18.95;;
23722;SDS011;12042;52.136;5.584;2023-03-20T01:26:46;27.23;;;17.70;;
23722;SDS011;12042;52.136;5.584;2023-03-20T01:29:20;29.05;;;17.60;;
23722;SDS011;12042;52.136;5.584;2023-03-20T01:31:50;30.23;;;17.98;;
23722;SDS011;12042;52.136;5.584;2023-03-20T01:34:16;27.27;;;17.27;;
23722;SDS011;12042;52.136;5.584;2023-03-20T01:36:43;27.25;;;17.30;;
23722;SDS011;12042;52.136;5.584;2023-03-20T01:39:19;25.77;;;16.60;;
23722;SDS011;12042;52.136;5.584;2023-03-20T01:41:48;26.02;;;16.15;;
23722;SDS011;12042;52.136;5.584;2023-03-20T01:44:18;25.65;;;15.38;;
23722;SDS011;12042;52.136;5.584;2023-03-20T01:46:46;29.60;;;15.50;;
23722;SDS011;12042;52.136;5.584;2023-03-20T01:51:45;20.60;;;14.02;;
23722;SDS011;12042;52.136;5.584;2023-03-20T01:54:18;22.33;;;13.65;;
23722;SDS011;12042;52.136;5.584;2023-03-20T01:57:07;23.45;;;12.77;;
23722;SDS011;12042;52.136;5.584;2023-03-20T01:59:46;26.27;;;12.40;;
23722;SDS011;12042;52.136;5.584;2023-03-20T02:02:24;22.33;;;12.82;;
23722;SDS011;12042;52.136;5.584;2023-03-20T02:04:55;17.98;;;11.80;;
23722;SDS011;12042;52.136;5.584;2023-03-20T02:07:26;17.52;;;11.82;;
23722;SDS011;12042;52.136;5.584;2023-03-20T02:09:51;15.60;;;11.00;;
23722;SDS011;12042;52.136;5.584;2023-03-20T02:12:17;18.27;;;11.20;;
23722;SDS011;12042;52.136;5.584;2023-03-20T02:14:44;14.65;;;10.95;;
23722;SDS011;12042;52.136;5.584;2023-03-20T02:17:11;18.77;;;10.70;;
23722;SDS011;12042;52.136;5.584;2023-03-20T02:19:42;14.88;;;10.55;;
23722;SDS011;12042;52.136;5.584;2023-03-20T02:33:24;13.23;;;9.27;;
23722;SDS011;12042;52.136;5.584;2023-03-20T02:39:13;12.90;;;9.13;;
23722;SDS011;12042;52.136;5.584;2023-03-20T02:41:50;14.52;;;8.52;;
23722;SDS011;12042;52.136;5.584;2023-03-20T02:44:32;12.18;;;7.95;;
23722;SDS011;12042;52.136;5.584;2023-03-20T02:47:20;10.23;;;7.70;;
23722;SDS011;12042;52.136;5.584;2023-03-20T02:49:54;11.85;;;8.05;;
23722;SDS011;12042;52.136;5.584;2023-03-20T02:52:35;12.18;;;8.43;;
23722;SDS011;12042;52.136;5.584;2023-03-20T02:55:17;13.77;;;8.55;;
23722;SDS011;12042;52.136;5.584;2023-03-20T03:05:58;10.65;;;8.38;;
23722;SDS011;12042;52.136;5.584;2023-03-20T03:08:48;16.67;;;9.68;;
23722;SDS011;12042;52.136;5.584;2023-03-20T03:11:17;16.52;;;9.60;;
23722;SDS011;12042;52.136;5.584;2023-03-20T03:13:47;19.60;;;10.32;;
23722;SDS011;12042;52.136;5.584;2023-03-20T03:16:26;19.58;;;9.60;;
23722;SDS011;12042;52.136;5.584;2023-03-20T03:19:00;17.17;;;10.40;;
23722;SDS011;12042;52.136;5.584;2023-03-20T03:21:33;19.58;;;11.50;;
23722;SDS011;12042;52.136;5.584;2023-03-20T03:24:01;22.13;;;12.18;;
23722;SDS011;12042;52.136;5.584;2023-03-20T03:26:29;23.90;;;12.07;;
23722;SDS011;12042;52.136;5.584;2023-03-20T03:29:01;22.10;;;12.48;;
23722;SDS011;12042;52.136;5.584;2023-03-20T03:31:30;22.95;;;13.05;;
23722;SDS011;12042;52.136;5.584;2023-03-20T03:33:57;23.70;;;13.07;;
23722;SDS011;12042;52.136;5.584;2023-03-20T03:36:28;22.38;;;13.77;;
23722;SDS011;12042;52.136;5.584;2023-03-20T03:42:02;25.65;;;14.23;;
23722;SDS011;12042;52.136;5.584;2023-03-20T03:49:49;25.60;;;15.23;;
23722;SDS011;12042;52.136;5.584;2023-03-20T03:52:22;25.35;;;14.98;;
23722;SDS011;12042;52.136;5.584;2023-03-20T03:54:54;29.40;;;14.85;;
23722;SDS011;12042;52.136;5.584;2023-03-20T03:57:36;29.02;;;14.70;;
23722;SDS011;12042;52.136;5.584;2023-03-20T04:00:13;27.15;;;14.10;;
23722;SDS011;12042;52.136;5.584;2023-03-20T04:02:41;26.95;;;14.43;;
23722;SDS011;12042;52.136;5.584;2023-03-20T04:05:10;26.95;;;14.40;;
23722;SDS011;12042;52.136;5.584;2023-03-20T04:07:37;25.23;;;14.13;;
23722;SDS011;12042;52.136;5.584;2023-03-20T04:10:04;20.70;;;13.50;;
23722;SDS011;12042;52.136;5.584;2023-03-20T04:12:37;23.80;;;13.27;;
23722;SDS011;12042;52.136;5.584;2023-03-20T04:15:05;27.20;;;13.50;;
23722;SDS011;12042;52.136;5.584;2023-03-20T04:17:31;31.50;;;13.88;;
23722;SDS011;12042;52.136;5.584;2023-03-20T04:19:57;26.67;;;14.65;;
23722;SDS011;12042;52.136;5.584;2023-03-20T04:22:23;26.00;;;14.43;;
23722;SDS011;12042;52.136;5.584;2023-03-20T04:24:48;24.05;;;14.05;;
23722;SDS011;12042;52.136;5.584;2023-03-20T04:27:15;26.42;;;14.23;;
23722;SDS011;12042;52.136;5.584;2023-03-20T04:29:40;25.98;;;15.07;;
23722;SDS011;12042;52.136;5.584;2023-03-20T04:32:07;27.13;;;15.50;;
23722;SDS011;12042;52.136;5.584;2023-03-20T04:34:32;27.77;;;15.52;;
23722;SDS011;12042;52.136;5.584;2023-03-20T04:36:58;30.15;;;15.82;;
23722;SDS011;12042;52.136;5.584;2023-03-20T04:39:25;31.35;;;15.88;;
23722;SDS011;12042;52.136;5.584;2023-03-20T04:41:51;27.23;;;16.33;;
23722;SDS011;12042;52.136;5.584;2023-03-20T04:44:16;27.50;;;16.48;;
23722;SDS011;12042;52.136;5.584;2023-03-20T04:46:42;25.27;;;15.25;;
23722;SDS011;12042;52.136;5.584;2023-03-20T04:49:07;27.15;;;16.05;;
23722;SDS011;12042;52.136;5.584;2023-03-20T04:51:33;29.02;;;16.63;;
23722;SDS011;12042;52.136;5.584;2023-03-20T04:53:59;29.80;;;17.27;;
23722;SDS011;12042;52.136;5.584;2023-03-20T04:56:24;31.90;;;17.13;;
23722;SDS011;12042;52.136;5.584;2023-03-20T04:58:50;29.38;;;17.05;;
23722;SDS011;12042;52.136;5.584;2023-03-20T05:01:15;33.00;;;18.08;;
23722;SDS011;12042;52.136;5.584;2023-03-20T05:03:41;32.03;;;17.98;;
23722;SDS011;12042;52.136;5.584;2023-03-20T05:06:07;30.85;;;17.58;;
23722;SDS011;12042;52.136;5.584;2023-03-20T05:08:32;38.28;;;19.33;;
23722;SDS011;12042;52.136;5.584;2023-03-20T05:10:58;29.83;;;17.95;;
23722;SDS011;12042;52.136;5.584;2023-03-20T05:13:24;36.80;;;19.65;;
23722;SDS011;12042;52.136;5.584;2023-03-20T05:15:49;35.90;;;19.90;;
23722;SDS011;12042;52.136;5.584;2023-03-20T05:18:15;34.97;;;19.42;;
23722;SDS011;12042;52.136;5.584;2023-03-20T05:20:40;31.40;;;19.52;;
23722;SDS011;12042;52.136;5.584;2023-03-20T05:23:06;33.15;;;19.23;;
23722;SDS011;12042;52.136;5.584;2023-03-20T05:25:32;35.50;;;18.50;;
23722;SDS011;12042;52.136;5.584;2023-03-20T05:27:57;32.67;;;18.90;;
23722;SDS011;12042;52.136;5.584;2023-03-20T05:30:23;30.98;;;19.67;;
23722;SDS011;12042;52.136;5.584;2023-03-20T05:32:49;32.55;;;19.00;;
23722;SDS011;12042;52.136;5.584;2023-03-20T05:35:16;31.73;;;19.75;;
23722;SDS011;12042;52.136;5.584;2023-03-20T05:37:41;33.15;;;20.27;;
23722;SDS011;12042;52.136;5.584;2023-03-20T05:40:08;32.08;;;19.75;;
23722;SDS011;12042;52.136;5.584;2023-03-20T05:42:36;35.92;;;20.42;;
23722;SDS011;12042;52.136;5.584;2023-03-20T05:45:02;32.38;;;19.35;;
23722;SDS011;12042;52.136;5.584;2023-03-20T05:47:28;31.38;;;19.67;;
23722;SDS011;12042;52.136;5.584;2023-03-20T05:49:54;36.20;;;20.45;;
23722;SDS011;12042;52.136;5.584;2023-03-20T05:52:20;36.70;;;19.83;;
23722;SDS011;12042;52.136;5.584;2023-03-20T05:54:45;35.38;;;20.98;;
23722;SDS011;12042;52.136;5.584;2023-03-20T05:57:11;37.58;;;20.98;;
23722;SDS011;12042;52.136;5.584;2023-03-20T05:59:37;34.15;;;20.35;;
23722;SDS011;12042;52.136;5.584;2023-03-20T06:02:03;33.53;;;19.80;;
23722;SDS011;12042;52.136;5.584;2023-03-20T06:04:28;32.75;;;18.95;;
23722;SDS011;12042;52.136;5.584;2023-03-20T06:06:54;31.75;;;19.23;;
23722;SDS011;12042;52.136;5.584;2023-03-20T06:09:20;33.03;;;18.83;;
23722;SDS011;12042;52.136;5.584;2023-03-20T06:11:46;32.03;;;18.90;;
23722;SDS011;12042;52.136;5.584;2023-03-20T06:14:11;36.65;;;18.92;;
23722;SDS011;12042;52.136;5.584;2023-03-20T06:16:37;29.25;;;17.42;;
23722;SDS011;12042;52.136;5.584;2023-03-20T06:19:02;30.85;;;17.55;;
23722;SDS011;12042;52.136;5.584;2023-03-20T06:21:28;28.80;;;18.42;;
23722;SDS011;12042;52.136;5.584;2023-03-20T06:23:53;28.38;;;18.52;;
23722;SDS011;12042;52.136;5.584;2023-03-20T06:26:19;33.00;;;18.83;;
23722;SDS011;12042;52.136;5.584;2023-03-20T06:28:45;31.95;;;18.40;;
23722;SDS011;12042;52.136;5.584;2023-03-20T06:31:11;30.23;;;17.95;;
23722;SDS011;12042;52.136;5.584;2023-03-20T06:33:37;29.38;;;17.38;;
23722;SDS011;12042;52.136;5.584;2023-03-20T06:36:03;31.98;;;17.83;;
23722;SDS011;12042;52.136;5.584;2023-03-20T06:38:29;31.08;;;17.45;;
23722;SDS011;12042;52.136;5.584;2023-03-20T06:40:55;28.50;;;17.00;;
23722;SDS011;12042;52.136;5.584;2023-03-20T06:43:20;25.75;;;15.10;;
23722;SDS011;12042;52.136;5.584;2023-03-20T06:45:46;29.27;;;17.35;;
23722;SDS011;12042;52.136;5.584;2023-03-20T06:48:12;24.38;;;15.15;;
23722;SDS011;12042;52.136;5.584;2023-03-20T06:50:38;28.13;;;15.40;;
23722;SDS011;12042;52.136;5.584;2023-03-20T06:53:04;27.25;;;15.88;;
23722;SDS011;12042;52.136;5.584;2023-03-20T06:55:29;30.48;;;17.67;;
23722;SDS011;12042;52.136;5.584;2023-03-20T06:57:55;24.58;;;14.85;;
23722;SDS011;12042;52.136;5.584;2023-03-20T07:00:21;24.13;;;15.63;;
23722;SDS011;12042;52.136;5.584;2023-03-20T07:02:46;27.73;;;16.30;;
23722;SDS011;12042;52.136;5.584;2023-03-20T07:05:13;23.58;;;14.77;;
23722;SDS011;12042;52.136;5.584;2023-03-20T07:07:39;25.48;;;15.10;;
23722;SDS011;12042;52.136;5.584;2023-03-20T07:10:05;22.55;;;14.15;;
23722;SDS011;12042;52.136;5.584;2023-03-20T07:12:33;24.38;;;14.35;;
23722;SDS011;12042;52.136;5.584;2023-03-20T07:15:00;24.17;;;15.18;;
23722;SDS011;12042;52.136;5.584;2023-03-20T07:17:26;24.95;;;14.50;;
23722;SDS011;12042;52.136;5.584;2023-03-20T07:19:51;23.73;;;14.23;;
23722;SDS011;12042;52.136;5.584;2023-03-20T07:22:20;23.23;;;14.10;;
23722;SDS011;12042;52.136;5.584;2023-03-20T07:24:48;23.95;;;14.10;;
23722;SDS011;12042;52.136;5.584;2023-03-20T07:27:14;24.65;;;14.20;;
23722;SDS011;12042;52.136;5.584;2023-03-20T07:29:40;23.27;;;14.77;;
23722;SDS011;12042;52.136;5.584;2023-03-20T07:32:06;21.60;;;13.90;;
23722;SDS011;12042;52.136;5.584;2023-03-20T07:34:31;26.45;;;14.10;;
23722;SDS011;12042;52.136;5.584;2023-03-20T07:36:57;20.08;;;12.80;;
23722;SDS011;12042;52.136;5.584;2023-03-20T07:39:22;23.92;;;12.75;;
23722;SDS011;12042;52.136;5.584;2023-03-20T07:41:49;25.75;;;13.57;;
23722;SDS011;12042;52.136;5.584;2023-03-20T07:44:15;23.10;;;13.27;;
23722;SDS011;12042;52.136;5.584;2023-03-20T07:46:43;24.38;;;13.57;;
23722;SDS011;12042;52.136;5.584;2023-03-20T07:49:11;22.77;;;13.57;;
23722;SDS011;12042;52.136;5.584;2023-03-20T07:51:43;23.60;;;13.65;;
23722;SDS011;12042;52.136;5.584;2023-03-20T07:54:10;23.55;;;12.98;;
23722;SDS011;12042;52.136;5.584;2023-03-20T07:56:35;21.33;;;12.95;;
23722;SDS011;12042;52.136;5.584;2023-03-20T07:59:04;24.17;;;13.05;;
23722;SDS011;12042;52.136;5.584;2023-03-20T08:01:30;23.25;;;12.45;;
23722;SDS011;12042;52.136;5.584;2023-03-20T08:03:56;23.63;;;12.18;;
23722;SDS011;12042;52.136;5.584;2023-03-20T08:06:21;23.33;;;12.93;;
23722;SDS011;12042;52.136;5.584;2023-03-20T08:08:47;23.92;;;12.35;;
23722;SDS011;12042;52.136;5.584;2023-03-20T08:11:15;24.02;;;12.27;;
23722;SDS011;12042;52.136;5.584;2023-03-20T08:13:41;22.42;;;12.32;;
23722;SDS011;12042;52.136;5.584;2023-03-20T08:16:07;21.75;;;12.10;;
23722;SDS011;12042;52.136;5.584;2023-03-20T08:18:33;21.77;;;12.07;;
23722;SDS011;12042;52.136;5.584;2023-03-20T08:20:59;23.35;;;11.98;;
23722;SDS011;12042;52.136;5.584;2023-03-20T08:23:24;23.20;;;11.77;;
23722;SDS011;12042;52.136;5.584;2023-03-20T08:25:51;23.08;;;12.27;;
23722;SDS011;12042;52.136;5.584;2023-03-20T08:28:18;23.05;;;11.65;;
23722;SDS011;12042;52.136;5.584;2023-03-20T08:30:44;21.95;;;11.52;;
23722;SDS011;12042;52.136;5.584;2023-03-20T08:33:10;18.90;;;11.63;;
23722;SDS011;12042;52.136;5.584;2023-03-20T08:35:36;24.38;;;11.57;;
23722;SDS011;12042;52.136;5.584;2023-03-20T08:38:02;19.98;;;10.18;;
23722;SDS011;12042;52.136;5.584;2023-03-20T08:40:28;20.02;;;10.63;;
23722;SDS011;12042;52.136;5.584;2023-03-20T08:42:54;17.30;;;10.77;;
23722;SDS011;12042;52.136;5.584;2023-03-20T08:45:19;19.48;;;10.80;;
23722;SDS011;12042;52.136;5.584;2023-03-20T08:47:48;20.20;;;10.68;;
23722;SDS011;12042;52.136;5.584;2023-03-20T08:50:15;26.80;;;11.32;;
23722;SDS011;12042;52.136;5.584;2023-03-20T08:52:41;21.45;;;10.20;;
23722;SDS011;12042;52.136;5.584;2023-03-20T08:55:11;19.38;;;10.32;;
23722;SDS011;12042;52.136;5.584;2023-03-20T08:57:37;17.95;;;9.10;;
23722;SDS011;12042;52.136;5.584;2023-03-20T09:00:04;14.18;;;8.85;;
23722;SDS011;12042;52.136;5.584;2023-03-20T09:02:31;15.52;;;8.50;;
23722;SDS011;12042;52.136;5.584;2023-03-20T09:04:57;19.35;;;8.60;;
23722;SDS011;12042;52.136;5.584;2023-03-20T09:07:22;20.65;;;8.90;;
23722;SDS011;12042;52.136;5.584;2023-03-20T09:09:48;23.13;;;8.80;;
23722;SDS011;12042;52.136;5.584;2023-03-20T09:12:14;15.20;;;8.30;;
23722;SDS011;12042;52.136;5.584;2023-03-20T09:14:40;16.05;;;8.52;;
23722;SDS011;12042;52.136;5.584;2023-03-20T09:17:05;16.35;;;8.82;;
23722;SDS011;12042;52.136;5.584;2023-03-20T09:19:31;16.40;;;8.43;;
23722;SDS011;12042;52.136;5.584;2023-03-20T09:21:57;12.48;;;7.35;;
23722;SDS011;12042;52.136;5.584;2023-03-20T09:24:23;15.70;;;7.95;;
23722;SDS011;12042;52.136;5.584;2023-03-20T09:26:50;16.38;;;8.75;;
23722;SDS011;12042;52.136;5.584;2023-03-20T09:29:16;15.02;;;8.00;;
23722;SDS011;12042;52.136;5.584;2023-03-20T09:31:42;23.00;;;8.20;;
23722;SDS011;12042;52.136;5.584;2023-03-20T09:34:07;13.43;;;7.32;;
23722;SDS011;12042;52.136;5.584;2023-03-20T09:36:33;19.02;;;7.70;;
23722;SDS011;12042;52.136;5.584;2023-03-20T09:38:59;21.90;;;7.85;;
23722;SDS011;12042;52.136;5.584;2023-03-20T09:41:25;14.23;;;7.90;;
23722;SDS011;12042;52.136;5.584;2023-03-20T09:47:05;14.20;;;7.53;;
23722;SDS011;12042;52.136;5.584;2023-03-20T09:52:48;14.07;;;7.88;;
23722;SDS011;12042;52.136;5.584;2023-03-20T09:55:39;14.07;;;8.45;;
23722;SDS011;12042;52.136;5.584;2023-03-20T09:58:27;21.15;;;8.80;;
23722;SDS011;12042;52.136;5.584;2023-03-20T10:00:55;14.18;;;8.95;;
23722;SDS011;12042;52.136;5.584;2023-03-20T10:03:25;13.35;;;8.52;;
23722;SDS011;12042;52.136;5.584;2023-03-20T10:05:57;14.45;;;8.00;;
23722;SDS011;12042;52.136;5.584;2023-03-20T10:08:27;14.80;;;7.90;;
23722;SDS011;12042;52.136;5.584;2023-03-20T10:13:50;13.65;;;7.60;;
23722;SDS011;12042;52.136;5.584;2023-03-20T10:22:12;12.52;;;7.35;;
23722;SDS011;12042;52.136;5.584;2023-03-20T10:27:38;15.15;;;8.15;;
23722;SDS011;12042;52.136;5.584;2023-03-20T10:33:08;14.13;;;7.65;;
23722;SDS011;12042;52.136;5.584;2023-03-20T10:35:48;13.13;;;6.93;;
23722;SDS011;12042;52.136;5.584;2023-03-20T10:38:29;11.40;;;7.07;;
23722;SDS011;12042;52.136;5.584;2023-03-20T10:41:08;14.55;;;7.18;;
23722;SDS011;12042;52.136;5.584;2023-03-20T10:43:39;11.85;;;6.57;;
23722;SDS011;12042;52.136;5.584;2023-03-20T10:48:49;11.25;;;6.22;;
23722;SDS011;12042;52.136;5.584;2023-03-20T10:51:24;9.63;;;6.25;;
23722;SDS011;12042;52.136;5.584;2023-03-20T10:54:01;10.82;;;6.18;;
23722;SDS011;12042;52.136;5.584;2023-03-20T10:59:09;12.60;;;6.00;;
23722;SDS011;12042;52.136;5.584;2023-03-20T11:01:50;10.23;;;6.22;;
23722;SDS011;12042;52.136;5.584;2023-03-20T11:04:16;12.10;;;7.00;;
23722;SDS011;12042;52.136;5.584;2023-03-20T11:06:46;13.15;;;6.70;;
23722;SDS011;12042;52.136;5.584;2023-03-20T11:09:31;10.23;;;6.68;;
23722;SDS011;12042;52.136;5.584;2023-03-20T11:11:57;12.50;;;6.68;;
23722;SDS011;12042;52.136;5.584;2023-03-20T11:14:26;11.75;;;6.63;;
23722;SDS011;12042;52.136;5.584;2023-03-20T11:17:03;13.27;;;6.95;;
23722;SDS011;12042;52.136;5.584;2023-03-20T11:19:34;10.48;;;6.30;;
23722;SDS011;12042;52.136;5.584;2023-03-20T11:24:45;12.23;;;5.97;;
23722;SDS011;12042;52.136;5.584;2023-03-20T11:27:16;11.07;;;6.50;;
23722;SDS011;12042;52.136;5.584;2023-03-20T11:29:47;12.32;;;6.15;;
23722;SDS011;12042;52.136;5.584;2023-03-20T11:35:20;13.80;;;6.00;;
23722;SDS011;12042;52.136;5.584;2023-03-20T11:37:52;14.13;;;6.55;;
23722;SDS011;12042;52.136;5.584;2023-03-20T11:40:21;12.02;;;6.85;;
23722;SDS011;12042;52.136;5.584;2023-03-20T11:42:55;14.52;;;6.88;;
23722;SDS011;12042;52.136;5.584;2023-03-20T11:45:32;10.77;;;6.95;;
23722;SDS011;12042;52.136;5.584;2023-03-20T11:47:59;13.23;;;8.07;;
23722;SDS011;12042;52.136;5.584;2023-03-20T11:50:29;17.70;;;8.88;;
23722;SDS011;12042;52.136;5.584;2023-03-20T11:52:57;13.98;;;7.97;;
23722;SDS011;12042;52.136;5.584;2023-03-20T11:55:32;17.17;;;9.52;;
23722;SDS011;12042;52.136;5.584;2023-03-20T11:58:00;21.13;;;10.18;;
23722;SDS011;12042;52.136;5.584;2023-03-20T12:00:33;18.95;;;10.57;;
23722;SDS011;12042;52.136;5.584;2023-03-20T12:03:31;17.30;;;10.70;;
23722;SDS011;12042;52.136;5.584;2023-03-20T12:06:07;21.73;;;11.10;;
23722;SDS011;12042;52.136;5.584;2023-03-20T12:08:45;21.33;;;11.00;;
23722;SDS011;12042;52.136;5.584;2023-03-20T12:14:14;26.42;;;11.80;;
23722;SDS011;12042;52.136;5.584;2023-03-20T12:19:51;18.92;;;11.70;;
23722;SDS011;12042;52.136;5.584;2023-03-20T12:22:22;18.45;;;11.88;;
23722;SDS011;12042;52.136;5.584;2023-03-20T12:25:05;26.35;;;12.57;;
23722;SDS011;12042;52.136;5.584;2023-03-20T12:27:50;24.50;;;11.80;;
23722;SDS011;12042;52.136;5.584;2023-03-20T12:30:27;23.35;;;12.25;;
23722;SDS011;12042;52.136;5.584;2023-03-20T12:33:28;22.17;;;12.55;;
23722;SDS011;12042;52.136;5.584;2023-03-20T12:36:10;23.52;;;12.98;;
23722;SDS011;12042;52.136;5.584;2023-03-20T12:38:43;22.73;;;13.02;;
23722;SDS011;12042;52.136;5.584;2023-03-20T12:58:00;25.95;;;16.90;;
23722;SDS011;12042;52.136;5.584;2023-03-20T13:03:08;31.60;;;17.85;;
23722;SDS011;12042;52.136;5.584;2023-03-20T13:11:28;29.77;;;18.10;;
23722;SDS011;12042;52.136;5.584;2023-03-20T13:14:12;34.08;;;17.85;;
23722;SDS011;12042;52.136;5.584;2023-03-20T13:17:11;33.88;;;18.33;;
23722;SDS011;12042;52.136;5.584;2023-03-20T13:28:56;30.73;;;17.77;;
23722;SDS011;12042;52.136;5.584;2023-03-20T13:39:05;27.77;;;16.60;;
23722;SDS011;12042;52.136;5.584;2023-03-20T13:41:46;28.25;;;17.27;;
23722;SDS011;12042;52.136;5.584;2023-03-20T13:44:13;28.75;;;17.23;;
23722;SDS011;12042;52.136;5.584;2023-03-20T13:46:45;30.50;;;18.02;;
23722;SDS011;12042;52.136;5.584;2023-03-20T14:03:11;26.02;;;17.27;;
23722;SDS011;12042;52.136;5.584;2023-03-20T14:05:53;31.90;;;17.73;;
23722;SDS011;12042;52.136;5.584;2023-03-20T14:10:46;32.50;;;17.40;;
23722;SDS011;12042;52.136;5.584;2023-03-20T14:13:18;30.30;;;16.80;;
23722;SDS011;12042;52.136;5.584;2023-03-20T14:15:46;27.08;;;16.83;;
23722;SDS011;12042;52.136;5.584;2023-03-20T14:18:20;28.65;;;17.05;;
23722;SDS011;12042;52.136;5.584;2023-03-20T14:20:55;31.77;;;17.80;;
23722;SDS011;12042;52.136;5.584;2023-03-20T14:23:28;27.98;;;17.05;;
23722;SDS011;12042;52.136;5.584;2023-03-20T14:26:07;33.10;;;17.45;;
23722;SDS011;12042;52.136;5.584;2023-03-20T14:31:25;27.27;;;17.00;;
23722;SDS011;12042;52.136;5.584;2023-03-20T14:33:58;28.33;;;16.92;;
23722;SDS011;12042;52.136;5.584;2023-03-20T14:39:27;29.63;;;17.00;;
23722;SDS011;12042;52.136;5.584;2023-03-20T14:47:33;29.73;;;17.63;;
23722;SDS011;12042;52.136;5.584;2023-03-20T14:50:12;29.27;;;17.42;;
23722;SDS011;12042;52.136;5.584;2023-03-20T14:55:31;32.90;;;17.27;;
23722;SDS011;12042;52.136;5.584;2023-03-20T15:03:48;27.20;;;17.45;;
23722;SDS011;12042;52.136;5.584;2023-03-20T15:06:20;32.30;;;17.95;;
23722;SDS011;12042;52.136;5.584;2023-03-20T15:08:48;32.20;;;18.35;;
23722;SDS011;12042;52.136;5.584;2023-03-20T15:11:17;30.17;;;17.30;;
23722;SDS011;12042;52.136;5.584;2023-03-20T15:13:44;37.20;;;19.40;;
23722;SDS011;12042;52.136;5.584;2023-03-20T15:16:12;34.28;;;19.30;;
23722;SDS011;12042;52.136;5.584;2023-03-20T15:18:48;32.40;;;19.80;;
23722;SDS011;12042;52.136;5.584;2023-03-20T15:21:35;36.30;;;19.42;;
23722;SDS011;12042;52.136;5.584;2023-03-20T15:24:02;32.75;;;19.35;;
23722;SDS011;12042;52.136;5.584;2023-03-20T15:26:30;33.65;;;19.50;;
23722;SDS011;12042;52.136;5.584;2023-03-20T15:31:31;31.50;;;18.05;;
23722;SDS011;12042;52.136;5.584;2023-03-20T15:33:59;34.25;;;18.77;;
23722;SDS011;12042;52.136;5.584;2023-03-20T15:36:29;33.47;;;19.48;;
23722;SDS011;12042;52.136;5.584;2023-03-20T15:41:37;32.05;;;20.13;;
23722;SDS011;12042;52.136;5.584;2023-03-20T15:46:37;29.80;;;19.27;;
23722;SDS011;12042;52.136;5.584;2023-03-20T15:49:03;30.55;;;19.77;;
23722;SDS011;12042;52.136;5.584;2023-03-20T15:51:29;29.52;;;20.02;;
23722;SDS011;12042;52.136;5.584;2023-03-20T15:53:54;33.55;;;19.92;;
23722;SDS011;12042;52.136;5.584;2023-03-20T15:56:23;33.15;;;20.48;;
23722;SDS011;12042;52.136;5.584;2023-03-20T15:58:51;32.03;;;20.70;;
23722;SDS011;12042;52.136;5.584;2023-03-20T16:01:21;33.88;;;20.08;;
23722;SDS011;12042;52.136;5.584;2023-03-20T16:03:49;33.53;;;20.77;;
23722;SDS011;12042;52.136;5.584;2023-03-20T16:06:19;33.05;;;20.15;;
23722;SDS011;12042;52.136;5.584;2023-03-20T16:08:55;32.80;;;20.77;;
23722;SDS011;12042;52.136;5.584;2023-03-20T16:11:32;29.92;;;20.08;;
23722;SDS011;12042;52.136;5.584;2023-03-20T16:14:00;33.65;;;21.38;;
23722;SDS011;12042;52.136;5.584;2023-03-20T16:16:27;37.38;;;22.25;;
23722;SDS011;12042;52.136;5.584;2023-03-20T16:18:54;33.60;;;23.27;;
23722;SDS011;12042;52.136;5.584;2023-03-20T16:21:24;36.83;;;22.85;;
23722;SDS011;12042;52.136;5.584;2023-03-20T16:23:57;34.92;;;23.55;;
23722;SDS011;12042;52.136;5.584;2023-03-20T16:26:24;38.17;;;22.52;;
23722;SDS011;12042;52.136;5.584;2023-03-20T16:28:52;38.47;;;22.65;;
23722;SDS011;12042;52.136;5.584;2023-03-20T16:33:49;44.08;;;24.08;;
23722;SDS011;12042;52.136;5.584;2023-03-20T16:36:16;43.53;;;23.70;;
23722;SDS011;12042;52.136;5.584;2023-03-20T16:38:56;39.17;;;22.73;;
23722;SDS011;12042;52.136;5.584;2023-03-20T16:44:04;50.20;;;24.33;;
23722;SDS011;12042;52.136;5.584;2023-03-20T16:46:52;48.72;;;24.45;;
23722;SDS011;12042;52.136;5.584;2023-03-20T16:52:09;43.08;;;23.58;;
23722;SDS011;12042;52.136;5.584;2023-03-20T16:54:38;51.58;;;25.00;;
23722;SDS011;12042;52.136;5.584;2023-03-20T16:57:08;46.85;;;24.13;;
23722;SDS011;12042;52.136;5.584;2023-03-20T16:59:39;44.85;;;23.45;;
23722;SDS011;12042;52.136;5.584;2023-03-20T17:02:22;42.17;;;23.48;;
23722;SDS011;12042;52.136;5.584;2023-03-20T17:04:55;40.30;;;24.25;;
23722;SDS011;12042;52.136;5.584;2023-03-20T17:07:25;44.42;;;24.55;;
23722;SDS011;12042;52.136;5.584;2023-03-20T17:12:25;49.75;;;26.67;;
23722;SDS011;12042;52.136;5.584;2023-03-20T17:14:55;39.90;;;24.67;;
23722;SDS011;12042;52.136;5.584;2023-03-20T17:17:20;50.38;;;26.45;;
23722;SDS011;12042;52.136;5.584;2023-03-20T17:19:48;54.08;;;26.77;;
23722;SDS011;12042;52.136;5.584;2023-03-20T17:22:20;49.05;;;27.08;;
23722;SDS011;12042;52.136;5.584;2023-03-20T17:24:47;52.22;;;27.95;;
23722;SDS011;12042;52.136;5.584;2023-03-20T17:27:13;54.97;;;28.38;;
23722;SDS011;12042;52.136;5.584;2023-03-20T17:29:41;57.45;;;27.88;;
23722;SDS011;12042;52.136;5.584;2023-03-20T17:32:13;59.10;;;28.20;;
23722;SDS011;12042;52.136;5.584;2023-03-20T17:34:43;51.22;;;27.00;;
23722;SDS011;12042;52.136;5.584;2023-03-20T17:37:23;49.33;;;28.15;;